createdAt,value
2023-05-18T00:00:38.169Z,2.40
2023-05-18T00:03:05.442Z,2.20
2023-05-18T00:05:34.577Z,2.60
2023-05-18T00:08:01.719Z,3.00
2023-05-18T00:10:29.169Z,2.67
2023-05-18T00:12:56.095Z,2.20
2023-05-18T00:15:22.941Z,2.33
2023-05-18T00:17:54.694Z,2.70
2023-05-18T00:20:27.173Z,1.90
2023-05-18T00:22:53.981Z,2.40
2023-05-18T00:25:23.139Z,2.50
2023-05-18T00:27:51.898Z,2.30
2023-05-18T00:30:21.569Z,2.47
2023-05-18T00:32:48.508Z,2.43
2023-05-18T00:35:15.359Z,2.33
2023-05-18T00:37:42.145Z,1.97
2023-05-18T00:40:09.662Z,1.93
2023-05-18T00:42:36.551Z,2.27
2023-05-18T00:45:06.102Z,2.23
2023-05-18T00:47:33.002Z,2.13
2023-05-18T00:49:59.867Z,2.90
2023-05-18T00:52:27.422Z,1.97
2023-05-18T00:54:54.271Z,2.23
2023-05-18T00:57:21.688Z,2.50
2023-05-18T00:59:48.506Z,2.00
2023-05-18T01:02:15.399Z,2.13
2023-05-18T01:04:43.062Z,2.07
2023-05-18T01:07:11.225Z,2.80
2023-05-18T01:09:40.537Z,2.83
2023-05-18T01:12:14.683Z,2.23
2023-05-18T01:15:02.004Z,3.40
2023-05-18T01:17:53.832Z,2.77
2023-05-18T01:20:39.048Z,2.13
2023-05-18T01:23:30.052Z,2.00
2023-05-18T01:25:56.865Z,2.00
2023-05-18T01:28:29.945Z,2.40
2023-05-18T01:30:56.809Z,2.00
2023-05-18T01:33:25.222Z,2.73
2023-05-18T01:35:52.343Z,2.40
2023-05-18T01:38:21.307Z,2.30
2023-05-18T01:41:00.635Z,2.60
2023-05-18T01:43:31.804Z,2.30
2023-05-18T01:46:03.661Z,2.40
2023-05-18T01:48:30.935Z,2.00
2023-05-18T01:50:58.715Z,2.13
2023-05-18T01:53:39.669Z,2.17
2023-05-18T01:56:07.928Z,2.20
2023-05-18T01:58:37.007Z,2.13
2023-05-18T02:01:04.410Z,2.23
2023-05-18T02:03:34.799Z,2.27
2023-05-18T02:06:01.864Z,2.67
2023-05-18T02:08:28.712Z,2.30
2023-05-18T02:10:56.270Z,2.30
2023-05-18T02:13:23.181Z,2.00
2023-05-18T02:15:50.093Z,2.20
2023-05-18T02:18:22.212Z,2.33
2023-05-18T02:20:49.472Z,2.50
2023-05-18T02:23:17.746Z,2.80
2023-05-18T02:25:44.968Z,2.17
2023-05-18T02:28:11.818Z,2.20
2023-05-18T02:30:38.632Z,2.27
2023-05-18T02:33:05.924Z,2.20
2023-05-18T02:35:33.152Z,2.50
2023-05-18T02:38:00.581Z,2.30
2023-05-18T02:40:27.822Z,2.10
2023-05-18T02:42:54.995Z,2.63
2023-05-18T02:45:22.333Z,2.20
2023-05-18T02:47:49.658Z,2.33
2023-05-18T02:50:16.988Z,3.00
2023-05-18T02:52:45.532Z,2.60
2023-05-18T02:55:13.874Z,2.80
2023-05-18T02:57:47.236Z,2.50
2023-05-18T03:00:16.744Z,2.40
2023-05-18T03:02:44.518Z,2.90
2023-05-18T03:05:11.914Z,2.17
2023-05-18T03:07:39.195Z,2.47
2023-05-18T03:10:07.839Z,2.80
2023-05-18T03:12:35.068Z,2.77
2023-05-18T03:15:02.366Z,2.60
2023-05-18T03:17:30.563Z,2.77
2023-05-18T03:20:04.636Z,2.60
2023-05-18T03:22:31.816Z,2.63
2023-05-18T03:24:59.087Z,2.47
2023-05-18T03:27:27.631Z,2.20
2023-05-18T03:29:54.828Z,3.27
2023-05-18T03:32:21.689Z,2.97
2023-05-18T03:34:51.264Z,2.77
2023-05-18T03:37:18.516Z,2.30
2023-05-18T03:39:47.432Z,2.40
2023-05-18T03:42:14.379Z,2.43
2023-05-18T03:44:43.913Z,2.73
2023-05-18T03:47:11.691Z,2.83
2023-05-18T03:49:41.132Z,2.57
2023-05-18T03:52:08.475Z,3.10
2023-05-18T03:54:35.348Z,2.60
2023-05-18T03:57:02.192Z,2.80
2023-05-18T03:59:28.981Z,2.17
2023-05-18T04:01:56.676Z,2.80
2023-05-18T04:04:23.791Z,2.70
2023-05-18T04:06:53.718Z,3.83
2023-05-18T04:09:21.872Z,2.10
2023-05-18T04:11:51.263Z,2.30
2023-05-18T04:14:18.146Z,2.60
2023-05-18T04:16:45.366Z,2.47
2023-05-18T04:19:13.768Z,2.80
2023-05-18T04:21:43.709Z,2.50
2023-05-18T04:24:14.581Z,2.27
2023-05-18T04:26:44.636Z,2.17
2023-05-18T04:29:13.465Z,3.20
2023-05-18T04:31:44.721Z,2.10
2023-05-18T04:34:13.375Z,2.43
2023-05-18T04:36:42.761Z,2.33
2023-05-18T04:39:10.955Z,2.20
2023-05-18T04:41:38.455Z,2.83
2023-05-18T04:44:08.775Z,2.53
2023-05-18T04:46:39.769Z,2.80
2023-05-18T04:49:07.065Z,2.40
2023-05-18T04:51:34.801Z,2.13
2023-05-18T04:54:03.317Z,2.27
2023-05-18T04:56:30.564Z,2.20
2023-05-18T04:58:59.597Z,2.30
2023-05-18T05:01:26.949Z,2.40
2023-05-18T05:03:54.250Z,2.33
2023-05-18T05:06:21.554Z,2.50
2023-05-18T05:08:51.211Z,2.20
2023-05-18T05:11:18.465Z,2.00
2023-05-18T05:13:45.864Z,2.43
2023-05-18T05:16:13.136Z,2.17
2023-05-18T05:18:40.472Z,2.20
2023-05-18T05:21:07.687Z,2.13
2023-05-18T05:23:34.881Z,2.23
2023-05-18T05:26:02.169Z,2.20
2023-05-18T05:28:31.732Z,2.17
2023-05-18T05:30:58.930Z,2.33
2023-05-18T05:33:26.243Z,2.30
2023-05-18T05:35:56.068Z,2.53
2023-05-18T05:38:23.324Z,2.40
2023-05-18T05:40:50.689Z,2.40
2023-05-18T05:43:17.956Z,2.20
2023-05-18T05:45:45.177Z,2.77
2023-05-18T05:48:13.913Z,1.90
2023-05-18T05:50:41.352Z,2.87
2023-05-18T05:53:08.312Z,2.43
2023-05-18T05:55:41.364Z,2.70
2023-05-18T05:58:11.770Z,1.87
2023-05-18T06:00:39.403Z,2.20
2023-05-18T06:03:06.361Z,2.07
2023-05-18T06:05:33.353Z,2.40
2023-05-18T06:08:03.321Z,2.03
2023-05-18T06:10:31.352Z,2.20
2023-05-18T06:12:58.598Z,2.23
2023-05-18T06:15:28.031Z,2.00
2023-05-18T06:17:55.344Z,1.73
2023-05-18T06:20:22.343Z,1.50
2023-05-18T06:22:49.242Z,1.80
2023-05-18T06:25:18.888Z,1.63
2023-05-18T06:27:46.161Z,1.50
2023-05-18T06:30:13.370Z,1.97
2023-05-18T06:32:40.316Z,1.77
2023-05-18T06:35:09.926Z,1.87
2023-05-18T06:37:36.729Z,1.97
2023-05-18T06:40:04.955Z,1.70
2023-05-18T06:42:32.830Z,1.60
2023-05-18T06:45:00.060Z,1.57
2023-05-18T06:47:26.877Z,1.77
2023-05-18T06:49:53.687Z,1.50
2023-05-18T06:52:20.544Z,1.63
2023-05-18T06:54:47.671Z,1.50
2023-05-18T06:57:14.504Z,1.73
2023-05-18T06:59:41.745Z,1.30
2023-05-18T07:02:09.080Z,1.40
2023-05-18T07:04:36.554Z,1.40
2023-05-18T07:07:06.112Z,1.43
2023-05-18T07:09:33.523Z,1.40
2023-05-18T07:12:01.010Z,1.10
2023-05-18T07:14:29.064Z,1.60
2023-05-18T07:16:56.352Z,1.40
2023-05-18T07:19:23.761Z,1.20
2023-05-18T07:21:51.176Z,1.40
2023-05-18T07:24:18.644Z,1.30
2023-05-18T07:26:48.073Z,1.30
2023-05-18T07:29:17.771Z,1.93
2023-05-18T07:31:44.692Z,1.10
2023-05-18T07:34:12.169Z,1.57
2023-05-18T07:36:39.538Z,1.50
2023-05-18T07:39:06.904Z,1.10
2023-05-18T07:41:36.484Z,1.10
2023-05-18T07:44:03.711Z,1.43
2023-05-18T07:46:31.538Z,1.83
2023-05-18T07:48:58.948Z,1.30
2023-05-18T07:51:26.208Z,1.20
2023-05-18T07:53:53.471Z,1.03
2023-05-18T07:56:20.690Z,1.53
2023-05-18T07:58:50.143Z,1.50
2023-05-18T08:01:17.484Z,1.17
2023-05-18T08:03:44.802Z,1.30
2023-05-18T08:06:12.196Z,1.50
2023-05-18T08:08:39.818Z,1.50
2023-05-18T08:11:09.521Z,1.40
2023-05-18T08:13:37.260Z,1.50
2023-05-18T08:18:37.830Z,1.00
2023-05-18T08:21:10.260Z,1.30
2023-05-18T08:23:37.681Z,1.30
2023-05-18T08:26:04.999Z,1.30
2023-05-18T08:28:32.394Z,1.20
2023-05-18T08:30:59.627Z,1.20
2023-05-18T08:33:29.162Z,1.13
2023-05-18T08:35:58.707Z,1.30
2023-05-18T08:38:26.153Z,1.23
2023-05-18T08:40:57.256Z,1.60
2023-05-18T08:46:05.452Z,1.40
2023-05-18T08:48:33.726Z,1.33
2023-05-18T08:51:06.324Z,1.30
2023-05-18T08:53:34.042Z,1.23
2023-05-18T08:56:01.853Z,1.30
2023-05-18T08:58:33.655Z,1.10
2023-05-18T09:01:00.935Z,1.33
2023-05-18T09:03:28.183Z,1.30
2023-05-18T09:05:59.925Z,1.10
2023-05-18T09:08:27.302Z,1.13
2023-05-18T09:10:56.648Z,1.30
2023-05-18T09:13:23.929Z,1.83
2023-05-18T09:15:51.491Z,0.97
2023-05-18T09:18:19.441Z,1.13
2023-05-18T09:20:47.588Z,1.37
2023-05-18T09:23:14.867Z,1.20
2023-05-18T09:25:51.704Z,1.03
2023-05-18T09:28:37.976Z,1.10
2023-05-18T09:31:07.444Z,1.30
2023-05-18T09:33:35.908Z,1.30
2023-05-18T09:36:07.591Z,1.37
2023-05-18T09:38:38.375Z,1.40
2023-05-18T09:41:11.016Z,1.20
2023-05-18T09:43:38.288Z,1.40
2023-05-18T09:46:08.844Z,1.10
2023-05-18T09:48:37.086Z,1.30
2023-05-18T09:51:07.565Z,1.30
2023-05-18T09:53:37.752Z,1.27
2023-05-18T09:56:11.956Z,1.50
2023-05-18T09:58:40.762Z,1.37
2023-05-18T10:01:10.764Z,1.47
2023-05-18T10:03:38.596Z,1.27
2023-05-18T10:06:09.644Z,1.43
2023-05-18T10:08:37.230Z,1.10
2023-05-18T10:11:07.106Z,1.43
2023-05-18T10:13:34.909Z,1.27
2023-05-18T10:16:03.582Z,1.27
2023-05-18T10:18:31.865Z,1.30
2023-05-18T10:21:00.485Z,1.43
2023-05-18T10:23:30.633Z,1.60
2023-05-18T10:25:57.906Z,1.13
2023-05-18T10:28:30.835Z,1.23
2023-05-18T10:30:58.907Z,0.90
2023-05-18T10:33:29.511Z,0.97
2023-05-18T10:35:57.575Z,0.97
2023-05-18T10:38:25.554Z,1.30
2023-05-18T10:40:53.650Z,0.97
2023-05-18T10:43:24.714Z,1.50
2023-05-18T10:45:57.244Z,1.30
2023-05-18T10:48:24.861Z,1.00
2023-05-18T10:50:52.999Z,0.90
2023-05-18T10:53:20.811Z,1.00
2023-05-18T10:55:48.666Z,1.27
2023-05-18T10:58:16.645Z,1.00
2023-05-18T11:00:44.912Z,0.97
2023-05-18T11:03:13.664Z,1.10
2023-05-18T11:05:41.434Z,1.10
2023-05-18T11:08:08.572Z,1.00
2023-05-18T11:10:42.690Z,1.20
2023-05-18T11:13:11.571Z,1.10
2023-05-18T11:15:53.524Z,1.00
2023-05-18T11:18:20.742Z,1.13
2023-05-18T11:20:48.388Z,0.93
2023-05-18T11:23:16.283Z,1.03
2023-05-18T11:25:46.275Z,0.80
2023-05-18T11:28:15.669Z,1.00
2023-05-18T11:30:42.472Z,1.07
2023-05-18T11:33:21.608Z,1.10
2023-05-18T11:36:07.776Z,0.90
2023-05-18T11:39:06.954Z,1.00
2023-05-18T11:41:43.671Z,1.10
2023-05-18T11:44:16.348Z,0.80
2023-05-18T11:46:52.330Z,1.00
2023-05-18T11:49:20.856Z,1.10
2023-05-18T11:52:06.939Z,1.00
2023-05-18T11:54:39.926Z,1.07
2023-05-18T11:57:10.695Z,1.00
2023-05-18T11:59:39.689Z,0.97
2023-05-18T12:02:06.734Z,0.90
2023-05-18T12:04:34.204Z,0.90
2023-05-18T12:07:04.391Z,1.10
2023-05-18T12:09:31.858Z,1.00
2023-05-18T12:11:59.108Z,1.00
2023-05-18T12:14:26.081Z,1.20
2023-05-18T12:16:55.616Z,1.10
2023-05-18T12:19:23.829Z,1.50
2023-05-18T12:21:50.736Z,1.10
2023-05-18T12:24:17.599Z,1.00
2023-05-18T12:26:46.659Z,1.10
2023-05-18T12:29:20.192Z,0.90
2023-05-18T12:31:47.777Z,0.97
2023-05-18T12:34:15.211Z,0.70
2023-05-18T12:36:51.676Z,1.00
2023-05-18T12:39:18.486Z,0.90
2023-05-18T12:41:45.475Z,0.97
2023-05-18T12:44:14.451Z,1.30
2023-05-18T12:46:42.542Z,1.73
2023-05-18T12:49:11.961Z,1.20
2023-05-18T12:51:39.633Z,1.33
2023-05-18T12:54:07.017Z,0.70
2023-05-18T12:56:52.858Z,0.83
2023-05-18T12:59:19.962Z,0.90
2023-05-18T13:01:46.938Z,0.97
2023-05-18T13:04:14.049Z,0.90
2023-05-18T13:06:41.876Z,1.10
2023-05-18T13:09:12.934Z,1.30
2023-05-18T13:11:39.985Z,1.10
2023-05-18T13:14:07.897Z,1.00
2023-05-18T13:16:37.452Z,0.80
2023-05-18T13:19:06.990Z,0.87
2023-05-18T13:21:34.595Z,0.87
2023-05-18T13:24:02.193Z,1.10
2023-05-18T13:26:29.062Z,0.97
2023-05-18T13:28:58.801Z,0.90
2023-05-18T13:31:25.714Z,1.03
2023-05-18T13:33:52.690Z,1.30
2023-05-18T13:36:19.543Z,1.60
2023-05-18T13:38:46.801Z,1.00
2023-05-18T13:41:15.352Z,0.93
2023-05-18T13:43:42.797Z,1.20
2023-05-18T13:46:09.896Z,1.30
2023-05-18T13:48:36.819Z,0.80
2023-05-18T13:51:03.733Z,1.00
2023-05-18T13:53:30.761Z,0.87
2023-05-18T13:55:57.644Z,1.10
2023-05-18T13:58:25.827Z,0.90
2023-05-18T14:00:54.443Z,0.93
2023-05-18T14:03:21.622Z,1.10
2023-05-18T14:05:48.645Z,1.20
2023-05-18T14:08:15.542Z,1.20
2023-05-18T14:10:44.550Z,0.90
2023-05-18T14:13:13.571Z,0.80
2023-05-18T14:15:40.390Z,1.10
2023-05-18T14:18:07.304Z,1.10
2023-05-18T14:20:34.775Z,0.90
2023-05-18T14:23:03.601Z,0.87
2023-05-18T14:25:32.516Z,0.80
2023-05-18T14:27:59.350Z,0.90
2023-05-18T14:30:26.233Z,1.10
2023-05-18T14:32:53.130Z,1.40
2023-05-18T14:35:19.959Z,1.23
2023-05-18T14:37:48.911Z,1.30
2023-05-18T14:40:15.712Z,1.07
2023-05-18T14:42:42.542Z,1.10
2023-05-18T14:45:17.486Z,1.20
2023-05-18T14:47:44.310Z,0.93
2023-05-18T14:50:11.152Z,1.27
2023-05-18T14:52:40.464Z,1.00
2023-05-18T14:55:07.689Z,1.10
2023-05-18T14:57:34.492Z,1.10
2023-05-18T15:00:01.296Z,1.07
2023-05-18T15:02:30.624Z,1.13
2023-05-18T15:04:59.973Z,1.20
2023-05-18T15:07:26.871Z,1.10
2023-05-18T15:09:56.462Z,1.13
2023-05-18T15:12:25.435Z,1.40
2023-05-18T15:14:54.538Z,1.20
2023-05-18T15:17:21.408Z,1.20
2023-05-18T15:19:48.286Z,1.23
2023-05-18T15:22:17.279Z,0.90
2023-05-18T15:24:44.043Z,1.20
2023-05-18T15:27:10.905Z,0.90
2023-05-18T15:29:37.702Z,0.90
2023-05-18T15:32:04.827Z,1.00
2023-05-18T15:34:33.503Z,0.93
2023-05-18T15:37:01.162Z,1.00
2023-05-18T15:39:28.014Z,1.20
2023-05-18T15:41:54.839Z,1.00
2023-05-18T15:44:21.656Z,1.30
2023-05-18T15:46:50.691Z,1.10
2023-05-18T15:49:21.730Z,1.23
2023-05-18T15:51:48.517Z,0.90
2023-05-18T15:54:15.350Z,1.33
2023-05-18T15:56:42.245Z,1.10
2023-05-18T15:59:11.921Z,1.23
2023-05-18T16:01:38.756Z,1.00
2023-05-18T16:04:08.192Z,1.10
2023-05-18T16:06:35.522Z,1.27
2023-05-18T16:09:04.967Z,1.30
2023-05-18T16:11:32.147Z,1.03
2023-05-18T16:14:00.521Z,1.00
2023-05-18T16:16:27.502Z,1.00
2023-05-18T16:18:56.891Z,1.00
2023-05-18T16:21:26.359Z,1.00
2023-05-18T16:23:59.428Z,1.00
2023-05-18T16:26:28.543Z,1.20
2023-05-18T16:28:55.513Z,1.20
2023-05-18T16:31:22.364Z,1.40
2023-05-18T16:33:49.194Z,1.10
2023-05-18T16:36:18.232Z,1.10
2023-05-18T16:38:45.050Z,1.27
2023-05-18T16:41:17.111Z,1.03
2023-05-18T16:43:43.924Z,1.30
2023-05-18T16:46:11.374Z,1.20
2023-05-18T16:48:38.219Z,1.30
2023-05-18T16:51:07.551Z,1.30
2023-05-18T16:53:36.845Z,1.10
2023-05-18T16:56:06.493Z,1.40
2023-05-18T16:58:35.788Z,1.17
2023-05-18T17:01:04.297Z,1.10
2023-05-18T17:03:38.980Z,1.50
2023-05-18T17:06:06.413Z,1.37
2023-05-18T17:08:33.220Z,1.43
2023-05-18T17:11:00.025Z,1.23
2023-05-18T17:13:26.839Z,1.43
2023-05-18T17:15:56.314Z,1.27
2023-05-18T17:18:23.324Z,1.40
2023-05-18T17:20:50.122Z,1.63
2023-05-18T17:23:19.287Z,1.47
2023-05-18T17:25:46.424Z,1.40
2023-05-18T17:28:13.908Z,1.60
2023-05-18T17:30:40.852Z,1.40
2023-05-18T17:33:07.777Z,1.37
2023-05-18T17:35:34.640Z,1.40
2023-05-18T17:38:01.555Z,1.20
2023-05-18T17:40:28.411Z,1.47
2023-05-18T17:42:55.222Z,1.53
2023-05-18T17:45:22.071Z,1.53
2023-05-18T17:47:48.935Z,1.50
2023-05-18T17:50:20.157Z,1.53
2023-05-18T17:52:46.924Z,1.30
2023-05-18T17:55:15.143Z,1.70
2023-05-18T17:57:45.334Z,1.40
2023-05-18T18:00:15.876Z,1.70
2023-05-18T18:02:42.730Z,1.57
2023-05-18T18:05:09.912Z,1.60
2023-05-18T18:07:39.326Z,1.60
2023-05-18T18:10:09.473Z,1.73
2023-05-18T18:12:36.318Z,1.80
2023-05-18T18:15:03.188Z,1.70
2023-05-18T18:17:30.077Z,1.53
2023-05-18T18:19:56.989Z,1.80
2023-05-18T18:22:28.328Z,1.80
2023-05-18T18:24:58.049Z,1.90
2023-05-18T18:27:25.253Z,1.90
2023-05-18T18:29:52.029Z,1.90
2023-05-18T18:32:23.520Z,1.73
2023-05-18T18:34:52.696Z,1.80
2023-05-18T18:37:21.978Z,1.90
2023-05-18T18:39:51.364Z,2.20
2023-05-18T18:42:21.332Z,1.93
2023-05-18T18:44:48.502Z,2.03
2023-05-18T18:47:17.795Z,2.30
2023-05-18T18:49:44.670Z,2.07
2023-05-18T18:52:13.612Z,2.03
2023-05-18T18:54:40.758Z,2.33
2023-05-18T18:57:07.644Z,2.17
2023-05-18T18:59:37.034Z,2.13
2023-05-18T19:02:04.041Z,2.27
2023-05-18T19:04:33.110Z,2.07
2023-05-18T19:07:03.259Z,2.23
2023-05-18T19:09:34.737Z,2.37
2023-05-18T19:12:01.860Z,2.20
2023-05-18T19:14:28.733Z,2.40
2023-05-18T19:16:56.222Z,2.60
2023-05-18T19:19:23.318Z,2.43
2023-05-18T19:21:50.603Z,2.27
2023-05-18T19:24:19.837Z,1.80
2023-05-18T19:26:46.629Z,2.80
2023-05-18T19:29:14.365Z,2.40
2023-05-18T19:31:43.491Z,2.67
2023-05-18T19:34:12.683Z,2.60
2023-05-18T19:36:39.538Z,2.53
2023-05-18T19:39:06.319Z,2.70
2023-05-18T19:41:33.197Z,2.70
2023-05-18T19:43:59.991Z,3.00
2023-05-18T19:46:27.063Z,2.60
2023-05-18T19:48:56.338Z,2.80
2023-05-18T19:51:23.716Z,2.90
2023-05-18T19:53:50.725Z,2.50
2023-05-18T19:56:21.949Z,3.03
2023-05-18T19:58:52.661Z,2.70
2023-05-18T20:01:20.333Z,3.10
2023-05-18T20:03:49.838Z,3.33
2023-05-18T20:06:17.120Z,2.90
2023-05-18T20:08:44.464Z,2.77
2023-05-18T20:11:11.647Z,3.00
2023-05-18T20:13:38.537Z,3.33
2023-05-18T20:16:06.819Z,2.60
2023-05-18T20:18:40.248Z,2.47
2023-05-18T20:21:07.121Z,2.90
2023-05-18T20:23:36.158Z,3.07
2023-05-18T20:26:03.410Z,3.00
2023-05-18T20:28:33.813Z,2.87
2023-05-18T20:31:03.278Z,3.40
2023-05-18T20:33:34.324Z,2.70
2023-05-18T20:36:01.846Z,2.93
2023-05-18T20:38:31.129Z,2.90
2023-05-18T20:41:01.688Z,2.80
2023-05-18T20:43:33.359Z,2.03
2023-05-18T20:46:00.239Z,2.50
2023-05-18T20:48:28.958Z,2.23
2023-05-18T20:50:55.818Z,2.37
2023-05-18T20:53:26.032Z,2.57
2023-05-18T20:55:54.344Z,2.27
2023-05-18T20:58:21.511Z,2.67
2023-05-18T21:00:49.088Z,2.30
2023-05-18T21:03:18.422Z,2.20
2023-05-18T21:05:45.446Z,2.43
2023-05-18T21:08:12.286Z,3.13
2023-05-18T21:10:39.119Z,2.53
2023-05-18T21:13:06.471Z,2.63
2023-05-18T21:15:36.667Z,1.97
2023-05-18T21:18:04.157Z,2.37
2023-05-18T21:20:32.053Z,2.33
2023-05-18T21:22:59.129Z,2.10
2023-05-18T21:25:26.055Z,1.90
2023-05-18T21:27:52.811Z,1.87
2023-05-18T21:30:19.655Z,2.03
2023-05-18T21:32:49.245Z,2.10
2023-05-18T21:35:16.257Z,1.80
2023-05-18T21:37:43.048Z,2.30
2023-05-18T21:40:12.401Z,1.93
2023-05-18T21:42:45.177Z,2.20
2023-05-18T21:45:12.839Z,2.00
2023-05-18T21:47:39.690Z,2.10
2023-05-18T21:50:12.146Z,2.20
2023-05-18T21:52:38.961Z,2.60
2023-05-18T21:55:06.503Z,2.23
2023-05-18T21:57:34.426Z,2.30
2023-05-18T22:00:01.679Z,2.80
2023-05-18T22:02:30.684Z,2.50
2023-05-18T22:04:57.513Z,3.03
2023-05-18T22:07:24.340Z,2.67
2023-05-18T22:09:53.313Z,2.40
2023-05-18T22:12:25.771Z,2.57
2023-05-18T22:14:55.105Z,3.00
2023-05-18T22:17:28.146Z,2.67
2023-05-18T22:20:00.651Z,3.03
2023-05-18T22:22:30.932Z,2.87
2023-05-18T22:24:58.163Z,3.20
2023-05-18T22:27:27.496Z,2.67
2023-05-18T22:29:54.313Z,3.00
2023-05-18T22:32:21.320Z,3.13
2023-05-18T22:34:48.400Z,3.20
2023-05-18T22:37:17.445Z,3.17
2023-05-18T22:39:44.518Z,3.20
2023-05-18T22:42:13.604Z,3.07
2023-05-18T22:44:57.701Z,2.97
2023-05-18T22:47:28.292Z,3.00
2023-05-18T22:49:55.165Z,3.17
2023-05-18T22:52:24.468Z,2.80
2023-05-18T22:54:51.327Z,2.90
2023-05-18T22:57:28.964Z,3.13
2023-05-18T22:59:58.269Z,3.13
2023-05-18T23:02:25.095Z,3.70
2023-05-18T23:04:54.298Z,3.07
2023-05-18T23:07:35.235Z,3.43
2023-05-18T23:10:09.327Z,2.90
2023-05-18T23:12:43.465Z,2.80
2023-05-18T23:15:12.861Z,2.47
2023-05-18T23:17:41.417Z,2.80
2023-05-18T23:20:11.689Z,2.70
2023-05-18T23:22:40.855Z,2.70
2023-05-18T23:25:10.008Z,2.70
2023-05-18T23:27:49.535Z,2.80
2023-05-18T23:30:19.054Z,3.13
2023-05-18T23:32:48.865Z,2.90
2023-05-18T23:35:16.425Z,2.57
2023-05-18T23:37:43.478Z,2.50
2023-05-18T23:40:17.548Z,2.70
2023-05-18T23:42:47.594Z,2.20
2023-05-18T23:45:15.182Z,2.50
2023-05-18T23:47:44.754Z,2.33
2023-05-18T23:50:18.215Z,2.40
2023-05-18T23:52:45.121Z,2.60
2023-05-18T23:55:12.089Z,2.10
2023-05-18T23:57:44.042Z,2.30
